Fort Chipewyan Airport
CYPY : now visible

Airfield :











YOU CAN JOIN US ON...

 
LOGIN :

Register | Disclaimer

   EN    FR    IT 

 









Legend :    VFR   Marginal VFR   IFR   Intensive IFR   Very Intensive IFR
Visi :
Ceiling :
>= 8 km
>= 3000ft
5 to 8 km
1000 to 3000 ft
1500m to 5 km
500 to 1000 ft
800 to 1500m
200 to 500 ft
< 800m
< 200 ft
Symbols :   Thunderstorms  Fog  Heavy snow  Heavy precipitations  Wind > 20 kt






- Airport Elevation : 761 ft
- IATA code : YPY


CYPY - Fort Chipewyan

CURRENT METAR :
  • 010200Z AUTO 06016G23KT 9SM BKN190 M12/M20 A3051 RMK SLP358

EXPIRED METARs :
  • 010100Z AUTO 06016G24KT 9SM BKN180 M11/M19 A3049 RMK SLP354
  • 010000Z AUTO 07013G21KT 9SM OVC190 M11/M19 A3049 RMK SLP352

TAF TAF CYPY
Valid from the 01 at 00:00 until the 01 at 06:00 UTC


312338Z 0100/0106 08015G25KT P6SM FEW080 BKN240
FM010200 06015G25KT P6SM SCT030 OVC160
TEMPO 0102/0106 BKN030 OVC160 RMK FCST BASED ON AUTO OBS. NXT FCST WILL BE ISSUED AT 011145Z



MET'MAP, your aeronautical weather chart ! - Copyright ORBIFLY December 2007 - Disclaimer

ORBIFLY MET'MAP TEAM :

Programming & Development : Alexandra Zaïnal
Concept & original design : Baudouin d'Aumeries
Assistance for programming : Marc-Olivier Méhu
Technical & hardware support : Manuel Goepfert

Contact : metmap@orbifly.com




SOURCES & CREDITS :

   NOAA       Earth
Advisory